sensor_id;sensor_type;location;lat;lon;timestamp;pressure;altitude;pressure_sealevel;temperature;humidity
32181;BME280;19172;51.504;3.894;2022-12-10T00:01:45;100756.47;;;7.35;79.53
32181;BME280;19172;51.504;3.894;2022-12-10T00:04:13;100759.09;;;7.35;80.05
32181;BME280;19172;51.504;3.894;2022-12-10T00:06:42;100756.25;;;7.20;80.26
32181;BME280;19172;51.504;3.894;2022-12-10T00:09:14;100762.28;;;7.13;81.08
32181;BME280;19172;51.504;3.894;2022-12-10T00:11:42;100751.94;;;7.25;81.69
32181;BME280;19172;51.504;3.894;2022-12-10T00:14:12;100754.81;;;7.42;81.45
32181;BME280;19172;51.504;3.894;2022-12-10T00:16:41;100750.19;;;7.26;81.87
32181;BME280;19172;51.504;3.894;2022-12-10T00:19:09;100747.00;;;7.47;81.97
32181;BME280;19172;51.504;3.894;2022-12-10T00:21:37;100751.28;;;7.41;82.36
32181;BME280;19172;51.504;3.894;2022-12-10T00:24:06;100753.25;;;7.56;82.16
32181;BME280;19172;51.504;3.894;2022-12-10T00:26:36;100763.63;;;7.47;82.10
32181;BME280;19172;51.504;3.894;2022-12-10T00:29:06;100751.50;;;7.58;82.64
32181;BME280;19172;51.504;3.894;2022-12-10T00:31:36;100757.63;;;7.56;82.56
32181;BME280;19172;51.504;3.894;2022-12-10T00:34:07;100761.25;;;7.67;82.14
32181;BME280;19172;51.504;3.894;2022-12-10T00:36:42;100757.56;;;7.51;82.20
32181;BME280;19172;51.504;3.894;2022-12-10T00:39:13;100755.09;;;7.65;82.84
32181;BME280;19172;51.504;3.894;2022-12-10T00:41:41;100762.22;;;7.73;82.43
32181;BME280;19172;51.504;3.894;2022-12-10T00:44:09;100759.28;;;7.51;81.74
32181;BME280;19172;51.504;3.894;2022-12-10T00:46:39;100760.44;;;7.72;81.93
32181;BME280;19172;51.504;3.894;2022-12-10T00:49:09;100757.94;;;7.80;81.89
32181;BME280;19172;51.504;3.894;2022-12-10T00:51:37;100753.47;;;7.74;81.88
32181;BME280;19172;51.504;3.894;2022-12-10T00:54:06;100749.69;;;7.54;82.01
32181;BME280;19172;51.504;3.894;2022-12-10T00:56:34;100755.84;;;7.55;82.24
32181;BME280;19172;51.504;3.894;2022-12-10T00:59:02;100757.03;;;7.78;82.61
32181;BME280;19172;51.504;3.894;2022-12-10T01:01:36;100753.44;;;7.71;82.61
32181;BME280;19172;51.504;3.894;2022-12-10T01:04:08;100759.59;;;7.72;81.77
32181;BME280;19172;51.504;3.894;2022-12-10T01:09:16;100760.59;;;7.81;81.55
32181;BME280;19172;51.504;3.894;2022-12-10T01:11:46;100758.91;;;7.88;82.00
32181;BME280;19172;51.504;3.894;2022-12-10T01:14:21;100760.72;;;7.93;82.23
32181;BME280;19172;51.504;3.894;2022-12-10T01:16:54;100768.63;;;7.95;82.00
32181;BME280;19172;51.504;3.894;2022-12-10T01:19:22;100771.44;;;7.39;81.78
32181;BME280;19172;51.504;3.894;2022-12-10T01:21:51;100780.44;;;7.57;82.47
32181;BME280;19172;51.504;3.894;2022-12-10T01:24:23;100779.34;;;7.41;82.12
32181;BME280;19172;51.504;3.894;2022-12-10T01:26:52;100784.56;;;7.38;82.58
32181;BME280;19172;51.504;3.894;2022-12-10T01:29:21;100783.63;;;7.34;82.79
32181;BME280;19172;51.504;3.894;2022-12-10T01:31:54;100785.56;;;7.47;82.89
32181;BME280;19172;51.504;3.894;2022-12-10T01:34:23;100787.09;;;7.30;83.05
32181;BME280;19172;51.504;3.894;2022-12-10T01:36:53;100785.34;;;7.32;84.05
32181;BME280;19172;51.504;3.894;2022-12-10T01:39:22;100790.94;;;6.46;83.89
32181;BME280;19172;51.504;3.894;2022-12-10T01:41:54;100797.97;;;6.02;85.22
32181;BME280;19172;51.504;3.894;2022-12-10T01:46:55;100807.41;;;6.37;90.19
32181;BME280;19172;51.504;3.894;2022-12-10T01:49:30;100809.59;;;6.59;90.35
32181;BME280;19172;51.504;3.894;2022-12-10T01:51:59;100808.47;;;6.48;90.44
32181;BME280;19172;51.504;3.894;2022-12-10T01:54:40;100810.88;;;6.84;90.83
32181;BME280;19172;51.504;3.894;2022-12-10T01:57:21;100801.50;;;7.00;91.02
32181;BME280;19172;51.504;3.894;2022-12-10T02:00:00;100812.00;;;7.00;91.26
32181;BME280;19172;51.504;3.894;2022-12-10T02:02:51;100819.25;;;6.62;90.46
32181;BME280;19172;51.504;3.894;2022-12-10T02:05:28;100816.94;;;6.78;91.05
32181;BME280;19172;51.504;3.894;2022-12-10T02:13:53;100812.78;;;5.98;93.82
32181;BME280;19172;51.504;3.894;2022-12-10T02:16:34;100804.75;;;6.35;94.72
32181;BME280;19172;51.504;3.894;2022-12-10T02:19:19;100811.72;;;6.33;95.19
32181;BME280;19172;51.504;3.894;2022-12-10T02:21:51;100813.88;;;6.56;96.31
32181;BME280;19172;51.504;3.894;2022-12-10T02:24:27;100823.03;;;5.86;95.86
32181;BME280;19172;51.504;3.894;2022-12-10T02:27:15;100821.50;;;5.97;95.22
32181;BME280;19172;51.504;3.894;2022-12-10T02:29:48;100822.91;;;6.22;97.12
32181;BME280;19172;51.504;3.894;2022-12-10T02:32:24;100822.19;;;6.30;97.17
32181;BME280;19172;51.504;3.894;2022-12-10T02:35:03;100819.88;;;6.02;96.28
32181;BME280;19172;51.504;3.894;2022-12-10T02:37:40;100822.06;;;6.26;96.41
32181;BME280;19172;51.504;3.894;2022-12-10T02:40:18;100827.38;;;5.47;96.59
32181;BME280;19172;51.504;3.894;2022-12-10T02:42:51;100824.59;;;5.79;98.12
32181;BME280;19172;51.504;3.894;2022-12-10T02:45:23;100819.34;;;6.20;98.59
32181;BME280;19172;51.504;3.894;2022-12-10T02:47:57;100813.88;;;6.56;99.47
32181;BME280;19172;51.504;3.894;2022-12-10T02:50:33;100820.63;;;6.42;97.52
32181;BME280;19172;51.504;3.894;2022-12-10T02:53:03;100818.94;;;6.45;98.28
32181;BME280;19172;51.504;3.894;2022-12-10T02:55:46;100819.69;;;5.93;96.41
32181;BME280;19172;51.504;3.894;2022-12-10T02:59:27;100814.34;;;6.33;96.94
32181;BME280;19172;51.504;3.894;2022-12-10T03:01:57;100812.75;;;5.97;97.17
32181;BME280;19172;51.504;3.894;2022-12-10T03:07:15;100810.44;;;6.13;98.93
32181;BME280;19172;51.504;3.894;2022-12-10T03:10:02;100819.69;;;5.95;98.51
32181;BME280;19172;51.504;3.894;2022-12-10T03:12:38;100810.03;;;5.94;97.97
32181;BME280;19172;51.504;3.894;2022-12-10T03:15:10;100811.44;;;6.18;99.49
32181;BME280;19172;51.504;3.894;2022-12-10T03:17:41;100805.06;;;6.51;98.82
32181;BME280;19172;51.504;3.894;2022-12-10T03:20:13;100808.94;;;6.26;98.08
32181;BME280;19172;51.504;3.894;2022-12-10T03:22:46;100802.38;;;6.48;98.22
32181;BME280;19172;51.504;3.894;2022-12-10T03:25:19;100807.59;;;6.01;97.14
32181;BME280;19172;51.504;3.894;2022-12-10T03:27:53;100807.00;;;5.75;97.72
32181;BME280;19172;51.504;3.894;2022-12-10T03:30:22;100804.69;;;6.32;99.09
32181;BME280;19172;51.504;3.894;2022-12-10T03:32:51;100806.97;;;6.61;99.18
32181;BME280;19172;51.504;3.894;2022-12-10T03:35:22;100802.25;;;6.92;98.50
32181;BME280;19172;51.504;3.894;2022-12-10T03:37:52;100798.16;;;7.08;97.06
32181;BME280;19172;51.504;3.894;2022-12-10T03:40:23;100796.69;;;7.28;96.20
32181;BME280;19172;51.504;3.894;2022-12-10T03:42:52;100803.91;;;7.41;94.91
32181;BME280;19172;51.504;3.894;2022-12-10T03:45:19;100795.78;;;7.28;94.08
32181;BME280;19172;51.504;3.894;2022-12-10T03:47:47;100797.75;;;7.39;93.62
32181;BME280;19172;51.504;3.894;2022-12-10T03:50:16;100803.06;;;7.44;92.74
32181;BME280;19172;51.504;3.894;2022-12-10T03:52:44;100804.94;;;7.54;91.85
32181;BME280;19172;51.504;3.894;2022-12-10T03:55:12;100800.63;;;7.58;91.24
32181;BME280;19172;51.504;3.894;2022-12-10T03:57:41;100795.16;;;7.44;90.33
32181;BME280;19172;51.504;3.894;2022-12-10T04:00:09;100794.16;;;7.34;89.30
32181;BME280;19172;51.504;3.894;2022-12-10T04:02:41;100796.03;;;7.44;89.41
32181;BME280;19172;51.504;3.894;2022-12-10T04:05:09;100795.28;;;7.53;89.60
32181;BME280;19172;51.504;3.894;2022-12-10T04:07:37;100798.00;;;7.58;89.50
32181;BME280;19172;51.504;3.894;2022-12-10T04:10:05;100802.38;;;7.57;89.14
32181;BME280;19172;51.504;3.894;2022-12-10T04:12:34;100799.59;;;7.47;89.20
32181;BME280;19172;51.504;3.894;2022-12-10T04:15:02;100797.22;;;7.66;88.64
32181;BME280;19172;51.504;3.894;2022-12-10T04:17:48;100804.09;;;7.55;88.60
32181;BME280;19172;51.504;3.894;2022-12-10T04:20:16;100803.41;;;7.70;88.11
32181;BME280;19172;51.504;3.894;2022-12-10T04:23:02;100801.50;;;7.60;88.37
32181;BME280;19172;51.504;3.894;2022-12-10T04:25:49;100805.56;;;7.33;88.17
32181;BME280;19172;51.504;3.894;2022-12-10T04:28:35;100799.44;;;7.37;87.92
32181;BME280;19172;51.504;3.894;2022-12-10T04:31:03;100796.84;;;7.39;88.18
32181;BME280;19172;51.504;3.894;2022-12-10T04:33:31;100797.00;;;7.50;88.39
32181;BME280;19172;51.504;3.894;2022-12-10T04:35:59;100800.66;;;7.61;88.34
32181;BME280;19172;51.504;3.894;2022-12-10T04:38:26;100796.81;;;7.37;87.47
32181;BME280;19172;51.504;3.894;2022-12-10T04:40:54;100806.31;;;6.72;87.95
32181;BME280;19172;51.504;3.894;2022-12-10T04:43:22;100795.78;;;7.28;88.91
32181;BME280;19172;51.504;3.894;2022-12-10T04:45:50;100800.38;;;7.41;88.38
32181;BME280;19172;51.504;3.894;2022-12-10T04:48:20;100803.19;;;7.53;88.65
32181;BME280;19172;51.504;3.894;2022-12-10T04:50:48;100796.28;;;7.63;88.46
32181;BME280;19172;51.504;3.894;2022-12-10T04:53:16;100796.56;;;7.82;88.51
32181;BME280;19172;51.504;3.894;2022-12-10T04:55:43;100789.66;;;7.92;88.30
32181;BME280;19172;51.504;3.894;2022-12-10T04:58:11;100791.13;;;7.70;87.83
32181;BME280;19172;51.504;3.894;2022-12-10T05:00:39;100793.06;;;7.85;87.09
32181;BME280;19172;51.504;3.894;2022-12-10T05:03:07;100794.59;;;7.65;86.62
32181;BME280;19172;51.504;3.894;2022-12-10T05:05:35;100801.47;;;7.57;86.11
32181;BME280;19172;51.504;3.894;2022-12-10T05:08:03;100799.59;;;7.47;85.90
32181;BME280;19172;51.504;3.894;2022-12-10T05:10:34;100799.59;;;7.47;85.96
32181;BME280;19172;51.504;3.894;2022-12-10T05:13:02;100805.00;;;7.56;85.80
32181;BME280;19172;51.504;3.894;2022-12-10T05:15:30;100807.63;;;7.56;85.78
32181;BME280;19172;51.504;3.894;2022-12-10T05:17:58;100800.53;;;7.53;85.96
32181;BME280;19172;51.504;3.894;2022-12-10T05:20:25;100803.38;;;7.65;85.84
32181;BME280;19172;51.504;3.894;2022-12-10T05:22:53;100808.75;;;7.76;85.80
32181;BME280;19172;51.504;3.894;2022-12-10T05:25:40;100804.38;;;7.75;85.02
32181;BME280;19172;51.504;3.894;2022-12-10T05:28:22;100805.03;;;7.59;85.07
32181;BME280;19172;51.504;3.894;2022-12-10T05:30:49;100803.00;;;7.39;84.95
32181;BME280;19172;51.504;3.894;2022-12-10T05:33:18;100804.16;;;7.58;85.02
32181;BME280;19172;51.504;3.894;2022-12-10T05:36:00;100806.41;;;7.32;84.74
32181;BME280;19172;51.504;3.894;2022-12-10T05:38:31;100808.38;;;7.49;85.58
32181;BME280;19172;51.504;3.894;2022-12-10T05:41:03;100805.00;;;7.00;85.81
32181;BME280;19172;51.504;3.894;2022-12-10T05:43:31;100806.09;;;7.13;86.61
32181;BME280;19172;51.504;3.894;2022-12-10T05:46:05;100810.53;;;7.17;86.64
32181;BME280;19172;51.504;3.894;2022-12-10T05:48:34;100809.47;;;7.04;87.45
32181;BME280;19172;51.504;3.894;2022-12-10T05:51:04;100811.34;;;7.11;87.23
32181;BME280;19172;51.504;3.894;2022-12-10T05:53:32;100813.84;;;7.05;87.49
32181;BME280;19172;51.504;3.894;2022-12-10T05:56:02;100815.94;;;7.26;88.44
32181;BME280;19172;51.504;3.894;2022-12-10T05:58:30;100813.28;;;7.24;88.98
32181;BME280;19172;51.504;3.894;2022-12-10T06:00:58;100816.88;;;7.31;88.50
32181;BME280;19172;51.504;3.894;2022-12-10T06:03:27;100819.91;;;6.98;88.00
32181;BME280;19172;51.504;3.894;2022-12-10T06:05:55;100808.25;;;7.39;88.95
32181;BME280;19172;51.504;3.894;2022-12-10T06:08:23;100814.53;;;7.51;89.00
32181;BME280;19172;51.504;3.894;2022-12-10T06:10:51;100817.34;;;7.63;88.73
32181;BME280;19172;51.504;3.894;2022-12-10T06:13:18;100822.19;;;7.32;88.71
32181;BME280;19172;51.504;3.894;2022-12-10T06:15:46;100814.72;;;7.61;88.85
32181;BME280;19172;51.504;3.894;2022-12-10T06:18:14;100829.59;;;7.61;88.20
32181;BME280;19172;51.504;3.894;2022-12-10T06:20:42;100828.16;;;7.21;88.07
32181;BME280;19172;51.504;3.894;2022-12-10T06:23:14;100828.03;;;7.15;88.52
32181;BME280;19172;51.504;3.894;2022-12-10T06:25:42;100829.81;;;7.16;89.12
32181;BME280;19172;51.504;3.894;2022-12-10T06:28:09;100832.63;;;7.26;88.98
32181;BME280;19172;51.504;3.894;2022-12-10T06:30:37;100837.13;;;7.35;89.82
32181;BME280;19172;51.504;3.894;2022-12-10T06:33:05;100827.44;;;7.32;89.21
32181;BME280;19172;51.504;3.894;2022-12-10T06:35:33;100834.53;;;7.38;89.52
32181;BME280;19172;51.504;3.894;2022-12-10T06:38:01;100834.47;;;7.33;89.36
32181;BME280;19172;51.504;3.894;2022-12-10T06:40:28;100843.53;;;7.54;88.79
32181;BME280;19172;51.504;3.894;2022-12-10T06:42:56;100838.78;;;7.28;88.38
32181;BME280;19172;51.504;3.894;2022-12-10T06:45:24;100841.63;;;6.89;88.30
32181;BME280;19172;51.504;3.894;2022-12-10T06:47:52;100840.47;;;7.25;88.30
32181;BME280;19172;51.504;3.894;2022-12-10T06:50:20;100839.47;;;7.17;88.77
32181;BME280;19172;51.504;3.894;2022-12-10T06:52:49;100831.72;;;7.26;89.62
32181;BME280;19172;51.504;3.894;2022-12-10T06:55:21;100836.97;;;7.26;89.27
32181;BME280;19172;51.504;3.894;2022-12-10T06:57:53;100832.66;;;7.31;89.91
32181;BME280;19172;51.504;3.894;2022-12-10T07:00:21;100835.41;;;7.38;89.81
32181;BME280;19172;51.504;3.894;2022-12-10T07:02:49;100838.22;;;7.49;90.24
32181;BME280;19172;51.504;3.894;2022-12-10T07:05:17;100851.81;;;7.22;89.56
32181;BME280;19172;51.504;3.894;2022-12-10T07:07:45;100850.53;;;7.52;90.30
32181;BME280;19172;51.504;3.894;2022-12-10T07:10:13;100848.16;;;7.70;89.79
32181;BME280;19172;51.504;3.894;2022-12-10T07:12:41;100849.38;;;7.34;88.80
32181;BME280;19172;51.504;3.894;2022-12-10T07:15:10;100843.28;;;7.35;88.77
32181;BME280;19172;51.504;3.894;2022-12-10T07:17:37;100851.47;;;7.55;88.95
32181;BME280;19172;51.504;3.894;2022-12-10T07:20:05;100849.63;;;7.50;88.87
32181;BME280;19172;51.504;3.894;2022-12-10T07:22:33;100851.28;;;7.43;89.24
32181;BME280;19172;51.504;3.894;2022-12-10T07:25:01;100862.75;;;6.96;89.55
32181;BME280;19172;51.504;3.894;2022-12-10T07:27:30;100852.44;;;7.06;90.00
32181;BME280;19172;51.504;3.894;2022-12-10T07:29:58;100854.53;;;7.27;91.04
32181;BME280;19172;51.504;3.894;2022-12-10T07:32:27;100853.88;;;7.41;90.26
32181;BME280;19172;51.504;3.894;2022-12-10T07:34:55;100861.34;;;7.16;90.48
32181;BME280;19172;51.504;3.894;2022-12-10T07:37:23;100861.41;;;7.17;90.99
32181;BME280;19172;51.504;3.894;2022-12-10T07:39:51;100857.22;;;7.31;90.67
32181;BME280;19172;51.504;3.894;2022-12-10T07:42:18;100866.28;;;6.96;90.44
32181;BME280;19172;51.504;3.894;2022-12-10T07:44:48;100867.34;;;7.07;91.52
32181;BME280;19172;51.504;3.894;2022-12-10T07:47:16;100856.66;;;6.97;92.35
32181;BME280;19172;51.504;3.894;2022-12-10T07:49:44;100861.22;;;7.07;92.39
32181;BME280;19172;51.504;3.894;2022-12-10T07:52:11;100864.91;;;6.67;91.93
32181;BME280;19172;51.504;3.894;2022-12-10T07:54:39;100863.84;;;7.07;92.65
32181;BME280;19172;51.504;3.894;2022-12-10T07:57:07;100867.47;;;7.13;93.59
32181;BME280;19172;51.504;3.894;2022-12-10T07:59:35;100884.31;;;6.75;92.75
32181;BME280;19172;51.504;3.894;2022-12-10T08:02:03;100882.00;;;7.45;93.46
32181;BME280;19172;51.504;3.894;2022-12-10T08:04:35;100889.28;;;7.08;92.30
32181;BME280;19172;51.504;3.894;2022-12-10T08:07:05;100886.06;;;7.25;93.08
32181;BME280;19172;51.504;3.894;2022-12-10T08:09:33;100885.31;;;7.32;92.87
32181;BME280;19172;51.504;3.894;2022-12-10T08:12:01;100884.03;;;7.09;93.02
32181;BME280;19172;51.504;3.894;2022-12-10T08:14:29;100886.13;;;7.28;92.21
32181;BME280;19172;51.504;3.894;2022-12-10T08:16:57;100890.47;;;6.75;92.00
32181;BME280;19172;51.504;3.894;2022-12-10T08:19:25;100886.72;;;7.12;92.78
32181;BME280;19172;51.504;3.894;2022-12-10T08:21:58;100897.38;;;7.21;92.62
32181;BME280;19172;51.504;3.894;2022-12-10T08:24:25;100900.91;;;7.20;92.62
32181;BME280;19172;51.504;3.894;2022-12-10T08:26:53;100898.25;;;7.20;92.93
32181;BME280;19172;51.504;3.894;2022-12-10T08:29:21;100899.34;;;7.33;93.04
32181;BME280;19172;51.504;3.894;2022-12-10T08:31:49;100902.50;;;7.12;92.78
32181;BME280;19172;51.504;3.894;2022-12-10T08:34:18;100904.16;;;7.07;92.91
32181;BME280;19172;51.504;3.894;2022-12-10T08:36:47;100911.22;;;7.08;92.70
32181;BME280;19172;51.504;3.894;2022-12-10T08:39:15;100918.47;;;7.23;92.23
32181;BME280;19172;51.504;3.894;2022-12-10T08:41:44;100914.03;;;7.20;92.88
32181;BME280;19172;51.504;3.894;2022-12-10T08:44:13;100911.63;;;7.32;92.72
32181;BME280;19172;51.504;3.894;2022-12-10T08:46:41;100903.09;;;7.49;93.20
32181;BME280;19172;51.504;3.894;2022-12-10T08:49:09;100907.63;;;7.56;93.13
32181;BME280;19172;51.504;3.894;2022-12-10T08:51:37;100916.44;;;7.61;91.95
32181;BME280;19172;51.504;3.894;2022-12-10T08:54:04;100929.31;;;7.44;91.54
32181;BME280;19172;51.504;3.894;2022-12-10T08:56:32;100923.97;;;7.36;91.08
32181;BME280;19172;51.504;3.894;2022-12-10T08:59:00;100928.25;;;7.30;92.06
32181;BME280;19172;51.504;3.894;2022-12-10T09:01:28;100923.09;;;7.37;92.67
32181;BME280;19172;51.504;3.894;2022-12-10T09:03:56;100937.22;;;7.42;92.61
32181;BME280;19172;51.504;3.894;2022-12-10T09:06:24;100928.44;;;7.43;92.40
32181;BME280;19172;51.504;3.894;2022-12-10T09:08:53;100931.19;;;7.50;92.69
32181;BME280;19172;51.504;3.894;2022-12-10T09:11:26;100929.69;;;7.67;92.05
32181;BME280;19172;51.504;3.894;2022-12-10T09:13:54;100931.66;;;7.78;91.91
32181;BME280;19172;51.504;3.894;2022-12-10T09:16:35;100928.97;;;7.77;91.71
32181;BME280;19172;51.504;3.894;2022-12-10T09:19:04;100929.88;;;7.79;91.12
32181;BME280;19172;51.504;3.894;2022-12-10T09:21:32;100932.38;;;7.68;90.95
32181;BME280;19172;51.504;3.894;2022-12-10T09:24:00;100930.75;;;7.78;90.78
32181;BME280;19172;51.504;3.894;2022-12-10T09:26:28;100930.50;;;7.63;90.53
32181;BME280;19172;51.504;3.894;2022-12-10T09:28:56;100937.75;;;7.77;91.29
32181;BME280;19172;51.504;3.894;2022-12-10T09:31:25;100932.50;;;7.79;91.42
32181;BME280;19172;51.504;3.894;2022-12-10T09:33:54;100938.88;;;7.94;91.64
32181;BME280;19172;51.504;3.894;2022-12-10T09:36:22;100941.91;;;8.23;91.42
32181;BME280;19172;51.504;3.894;2022-12-10T09:38:52;100938.44;;;8.24;91.35
32181;BME280;19172;51.504;3.894;2022-12-10T09:47:31;100931.03;;;7.96;89.27
32181;BME280;19172;51.504;3.894;2022-12-10T09:50:31;100928.44;;;7.99;89.92
32181;BME280;19172;51.504;3.894;2022-12-10T09:53:02;100936.97;;;7.83;89.28
32181;BME280;19172;51.504;3.894;2022-12-10T09:55:37;100936.84;;;8.34;90.38
32181;BME280;19172;51.504;3.894;2022-12-10T09:58:15;100937.78;;;8.39;90.08
32181;BME280;19172;51.504;3.894;2022-12-10T10:00:48;100939.31;;;8.25;90.04
32181;BME280;19172;51.504;3.894;2022-12-10T10:03:16;100938.69;;;8.42;89.96
32181;BME280;19172;51.504;3.894;2022-12-10T10:05:48;100947.53;;;8.46;89.41
32181;BME280;19172;51.504;3.894;2022-12-10T10:08:31;100941.50;;;8.56;89.30
32181;BME280;19172;51.504;3.894;2022-12-10T10:11:00;100949.69;;;8.77;88.77
32181;BME280;19172;51.504;3.894;2022-12-10T10:13:44;100954.63;;;7.91;88.09
32181;BME280;19172;51.504;3.894;2022-12-10T10:18:54;100948.69;;;8.68;88.90
32181;BME280;19172;51.504;3.894;2022-12-10T10:21:27;100958.47;;;8.81;88.37
32181;BME280;19172;51.504;3.894;2022-12-10T10:23:56;100959.00;;;8.49;87.59
32181;BME280;19172;51.504;3.894;2022-12-10T10:26:26;100961.00;;;8.72;88.10
32181;BME280;19172;51.504;3.894;2022-12-10T10:29:00;100957.63;;;8.82;87.79
32181;BME280;19172;51.504;3.894;2022-12-10T10:31:32;100953.94;;;8.66;87.92
32181;BME280;19172;51.504;3.894;2022-12-10T10:34:04;100962.69;;;8.65;87.61
32181;BME280;19172;51.504;3.894;2022-12-10T10:36:34;100952.19;;;8.68;88.16
32181;BME280;19172;51.504;3.894;2022-12-10T10:39:27;100944.34;;;8.73;87.96
32181;BME280;19172;51.504;3.894;2022-12-10T10:41:58;100944.47;;;8.83;88.32
32181;BME280;19172;51.504;3.894;2022-12-10T10:44:33;100939.91;;;8.69;88.30
32181;BME280;19172;51.504;3.894;2022-12-10T10:47:26;100937.53;;;8.94;88.64
32181;BME280;19172;51.504;3.894;2022-12-10T10:50:02;100943.78;;;8.99;88.27
32181;BME280;19172;51.504;3.894;2022-12-10T10:52:38;100940.31;;;9.10;87.67
32181;BME280;19172;51.504;3.894;2022-12-10T10:55:30;100938.81;;;9.31;87.96
32181;BME280;19172;51.504;3.894;2022-12-10T10:57:58;100935.97;;;9.12;86.93
32181;BME280;19172;51.504;3.894;2022-12-10T11:00:26;100934.94;;;8.97;87.19
32181;BME280;19172;51.504;3.894;2022-12-10T11:02:54;100937.94;;;9.34;87.45
32181;BME280;19172;51.504;3.894;2022-12-10T11:05:25;100938.81;;;9.34;87.45
32181;BME280;19172;51.504;3.894;2022-12-10T11:08:06;100943.25;;;9.40;86.35
32181;BME280;19172;51.504;3.894;2022-12-10T11:10:54;100937.63;;;9.03;85.94
32181;BME280;19172;51.504;3.894;2022-12-10T11:13:26;100941.75;;;8.76;86.56
32181;BME280;19172;51.504;3.894;2022-12-10T11:16:22;100937.72;;;9.13;87.23
32181;BME280;19172;51.504;3.894;2022-12-10T11:18:57;100941.53;;;9.45;86.60
32181;BME280;19172;51.504;3.894;2022-12-10T11:21:33;100938.91;;;9.48;87.41
32181;BME280;19172;51.504;3.894;2022-12-10T11:24:11;100937.28;;;9.64;86.80
32181;BME280;19172;51.504;3.894;2022-12-10T11:29:46;100942.38;;;9.39;86.56
32181;BME280;19172;51.504;3.894;2022-12-10T11:35:10;100925.63;;;9.34;87.15
32181;BME280;19172;51.504;3.894;2022-12-10T11:48:43;100923.94;;;9.42;86.37
32181;BME280;19172;51.504;3.894;2022-12-10T11:51:38;100927.44;;;9.40;86.23
32181;BME280;19172;51.504;3.894;2022-12-10T11:57:23;100922.38;;;9.70;85.95
32181;BME280;19172;51.504;3.894;2022-12-10T12:03:00;100917.25;;;9.91;85.51
32181;BME280;19172;51.504;3.894;2022-12-10T12:05:51;100918.13;;;9.89;84.80
32181;BME280;19172;51.504;3.894;2022-12-10T12:08:44;100929.53;;;9.86;85.72
32181;BME280;19172;51.504;3.894;2022-12-10T12:20:24;100924.47;;;10.14;83.61
32181;BME280;19172;51.504;3.894;2022-12-10T12:22:58;100929.81;;;10.27;84.31
32181;BME280;19172;51.504;3.894;2022-12-10T12:25:41;100935.06;;;10.21;84.19
32181;BME280;19172;51.504;3.894;2022-12-10T12:31:25;100927.31;;;10.56;83.22
32181;BME280;19172;51.504;3.894;2022-12-10T12:34:10;100929.09;;;10.68;84.19
32181;BME280;19172;51.504;3.894;2022-12-10T12:36:41;100928.16;;;10.49;83.87
32181;BME280;19172;51.504;3.894;2022-12-10T12:39:23;100926.50;;;10.78;83.38
32181;BME280;19172;51.504;3.894;2022-12-10T12:42:06;100936.19;;;10.85;83.86
32181;BME280;19172;51.504;3.894;2022-12-10T12:44:48;100933.59;;;11.03;82.90
32181;BME280;19172;51.504;3.894;2022-12-10T12:51:05;100945.91;;;10.89;81.53
32181;BME280;19172;51.504;3.894;2022-12-10T12:53:31;100944.97;;;10.68;81.54
32181;BME280;19172;51.504;3.894;2022-12-10T12:56:05;100945.00;;;10.75;80.70
32181;BME280;19172;51.504;3.894;2022-12-10T12:58:42;100942.09;;;10.15;80.27
32181;BME280;19172;51.504;3.894;2022-12-10T13:03:51;100940.38;;;10.29;82.46
32181;BME280;19172;51.504;3.894;2022-12-10T13:06:29;100941.31;;;10.34;82.13
32181;BME280;19172;51.504;3.894;2022-12-10T13:11:46;100943.19;;;10.70;81.91
32181;BME280;19172;51.504;3.894;2022-12-10T13:14:36;100951.94;;;10.49;82.01
32181;BME280;19172;51.504;3.894;2022-12-10T13:17:33;100948.50;;;10.73;81.96
32181;BME280;19172;51.504;3.894;2022-12-10T13:22:59;100945.91;;;10.95;81.25
32181;BME280;19172;51.504;3.894;2022-12-10T13:25:41;100956.50;;;10.95;80.54
32181;BME280;19172;51.504;3.894;2022-12-10T13:33:47;100956.50;;;10.89;80.30
32181;BME280;19172;51.504;3.894;2022-12-10T13:36:24;100955.63;;;10.95;79.74
32181;BME280;19172;51.504;3.894;2022-12-10T13:41:34;100952.97;;;10.92;78.49
32181;BME280;19172;51.504;3.894;2022-12-10T13:44:46;100959.09;;;10.76;78.71
32181;BME280;19172;51.504;3.894;2022-12-10T13:47:26;100955.59;;;10.80;78.51
32181;BME280;19172;51.504;3.894;2022-12-10T13:50:06;100947.69;;;10.93;79.69
32181;BME280;19172;51.504;3.894;2022-12-10T13:53:20;100957.25;;;10.56;79.00
32181;BME280;19172;51.504;3.894;2022-12-10T14:04:42;100959.16;;;10.94;79.16
32181;BME280;19172;51.504;3.894;2022-12-10T14:07:16;100958.25;;;10.81;78.84
32181;BME280;19172;51.504;3.894;2022-12-10T14:09:54;100961.75;;;10.74;79.40
32181;BME280;19172;51.504;3.894;2022-12-10T14:12:40;100967.91;;;10.76;79.32
32181;BME280;19172;51.504;3.894;2022-12-10T14:15:24;100973.03;;;10.37;80.27
32181;BME280;19172;51.504;3.894;2022-12-10T14:18:02;100985.47;;;10.56;81.31
32181;BME280;19172;51.504;3.894;2022-12-10T14:20:33;100981.00;;;10.40;80.94
32181;BME280;19172;51.504;3.894;2022-12-10T14:23:21;100983.13;;;9.73;80.89
32181;BME280;19172;51.504;3.894;2022-12-10T14:26:13;100995.72;;;10.09;82.40
32181;BME280;19172;51.504;3.894;2022-12-10T14:28:45;101004.31;;;9.78;82.30
32181;BME280;19172;51.504;3.894;2022-12-10T14:31:42;101002.78;;;10.07;83.88
32181;BME280;19172;51.504;3.894;2022-12-10T14:34:18;100995.00;;;10.31;85.51
32181;BME280;19172;51.504;3.894;2022-12-10T14:36:52;101002.66;;;9.89;85.74
32181;BME280;19172;51.504;3.894;2022-12-10T14:39:31;100991.16;;;9.85;85.36
32181;BME280;19172;51.504;3.894;2022-12-10T14:42:03;100986.06;;;10.11;85.97
32181;BME280;19172;51.504;3.894;2022-12-10T14:44:34;100987.94;;;10.23;86.06
32181;BME280;19172;51.504;3.894;2022-12-10T14:47:05;100988.78;;;10.22;85.85
32181;BME280;19172;51.504;3.894;2022-12-10T14:49:39;100981.84;;;10.36;85.00
32181;BME280;19172;51.504;3.894;2022-12-10T14:52:15;100987.97;;;10.29;85.43
32181;BME280;19172;51.504;3.894;2022-12-10T14:54:46;100988.09;;;10.51;84.88
32181;BME280;19172;51.504;3.894;2022-12-10T14:57:26;100978.38;;;10.47;84.08